sensor_id;sensor_type;location;lat;lon;timestamp;P1;durP1;ratioP1;P2;durP2;ratioP2
9188;SDS011;34313;50.780;6.084;2024-01-06T00:00:31;6.87;;;6.17;;
9188;SDS011;34313;50.780;6.084;2024-01-06T00:02:57;8.60;;;7.10;;
9188;SDS011;34313;50.780;6.084;2024-01-06T00:05:22;9.67;;;8.33;;
9188;SDS011;34313;50.780;6.084;2024-01-06T00:07:47;10.23;;;8.13;;
9188;SDS011;34313;50.780;6.084;2024-01-06T00:10:12;11.87;;;9.37;;
9188;SDS011;34313;50.780;6.084;2024-01-06T00:12:38;12.87;;;10.03;;
9188;SDS011;34313;50.780;6.084;2024-01-06T00:15:03;15.13;;;11.03;;
9188;SDS011;34313;50.780;6.084;2024-01-06T00:17:29;14.50;;;10.70;;
9188;SDS011;34313;50.780;6.084;2024-01-06T00:19:54;21.33;;;13.00;;
9188;SDS011;34313;50.780;6.084;2024-01-06T00:22:20;19.60;;;12.00;;
9188;SDS011;34313;50.780;6.084;2024-01-06T00:24:45;18.20;;;13.00;;
9188;SDS011;34313;50.780;6.084;2024-01-06T00:27:11;20.00;;;12.70;;
9188;SDS011;34313;50.780;6.084;2024-01-06T00:29:36;17.37;;;13.17;;
9188;SDS011;34313;50.780;6.084;2024-01-06T00:32:02;17.13;;;13.40;;
9188;SDS011;34313;50.780;6.084;2024-01-06T00:34:27;19.90;;;12.80;;
9188;SDS011;34313;50.780;6.084;2024-01-06T00:36:52;17.13;;;13.20;;
9188;SDS011;34313;50.780;6.084;2024-01-06T00:39:18;19.27;;;12.60;;
9188;SDS011;34313;50.780;6.084;2024-01-06T00:41:45;19.87;;;12.80;;
9188;SDS011;34313;50.780;6.084;2024-01-06T00:44:10;22.50;;;14.17;;
9188;SDS011;34313;50.780;6.084;2024-01-06T00:46:35;18.43;;;13.70;;
9188;SDS011;34313;50.780;6.084;2024-01-06T00:49:01;16.90;;;13.40;;
9188;SDS011;34313;50.780;6.084;2024-01-06T00:51:26;18.27;;;14.10;;
9188;SDS011;34313;50.780;6.084;2024-01-06T00:53:52;18.47;;;13.93;;
9188;SDS011;34313;50.780;6.084;2024-01-06T00:56:18;19.90;;;13.17;;
9188;SDS011;34313;50.780;6.084;2024-01-06T00:58:43;19.17;;;14.67;;
9188;SDS011;34313;50.780;6.084;2024-01-06T01:01:08;22.83;;;16.00;;
9188;SDS011;34313;50.780;6.084;2024-01-06T01:03:34;19.10;;;15.10;;
9188;SDS011;34313;50.780;6.084;2024-01-06T01:05:59;25.83;;;15.20;;
9188;SDS011;34313;50.780;6.084;2024-01-06T01:08:24;20.53;;;14.90;;
9188;SDS011;34313;50.780;6.084;2024-01-06T01:10:50;19.60;;;14.90;;
9188;SDS011;34313;50.780;6.084;2024-01-06T01:13:15;21.67;;;15.43;;
9188;SDS011;34313;50.780;6.084;2024-01-06T01:15:40;22.20;;;14.17;;
9188;SDS011;34313;50.780;6.084;2024-01-06T01:18:06;20.83;;;14.90;;
9188;SDS011;34313;50.780;6.084;2024-01-06T01:20:31;20.90;;;13.80;;
9188;SDS011;34313;50.780;6.084;2024-01-06T01:22:56;19.57;;;14.03;;
9188;SDS011;34313;50.780;6.084;2024-01-06T01:25:22;19.67;;;13.60;;
9188;SDS011;34313;50.780;6.084;2024-01-06T01:27:47;21.00;;;14.27;;
9188;SDS011;34313;50.780;6.084;2024-01-06T01:30:12;19.67;;;12.87;;
9188;SDS011;34313;50.780;6.084;2024-01-06T01:32:39;18.00;;;14.43;;
9188;SDS011;34313;50.780;6.084;2024-01-06T01:35:04;24.23;;;15.80;;
9188;SDS011;34313;50.780;6.084;2024-01-06T01:37:30;26.40;;;16.30;;
9188;SDS011;34313;50.780;6.084;2024-01-06T01:39:55;23.10;;;16.67;;
9188;SDS011;34313;50.780;6.084;2024-01-06T01:42:21;29.00;;;17.87;;
9188;SDS011;34313;50.780;6.084;2024-01-06T01:44:46;26.43;;;17.90;;
9188;SDS011;34313;50.780;6.084;2024-01-06T01:47:11;26.20;;;17.13;;
9188;SDS011;34313;50.780;6.084;2024-01-06T01:49:37;24.57;;;17.30;;
9188;SDS011;34313;50.780;6.084;2024-01-06T01:52:03;24.13;;;17.50;;
9188;SDS011;34313;50.780;6.084;2024-01-06T01:54:28;20.33;;;15.40;;
9188;SDS011;34313;50.780;6.084;2024-01-06T01:56:54;27.00;;;16.77;;
9188;SDS011;34313;50.780;6.084;2024-01-06T01:59:20;21.50;;;14.90;;
9188;SDS011;34313;50.780;6.084;2024-01-06T02:01:45;22.60;;;14.80;;
9188;SDS011;34313;50.780;6.084;2024-01-06T02:04:11;22.13;;;13.87;;
9188;SDS011;34313;50.780;6.084;2024-01-06T02:06:37;21.27;;;13.57;;
9188;SDS011;34313;50.780;6.084;2024-01-06T02:09:02;24.10;;;13.50;;
9188;SDS011;34313;50.780;6.084;2024-01-06T02:11:28;19.37;;;12.27;;
9188;SDS011;34313;50.780;6.084;2024-01-06T02:13:53;19.47;;;13.50;;
9188;SDS011;34313;50.780;6.084;2024-01-06T02:16:18;20.70;;;11.07;;
9188;SDS011;34313;50.780;6.084;2024-01-06T02:18:44;15.23;;;10.47;;
9188;SDS011;34313;50.780;6.084;2024-01-06T02:21:09;23.00;;;11.47;;
9188;SDS011;34313;50.780;6.084;2024-01-06T02:23:35;13.23;;;10.40;;
9188;SDS011;34313;50.780;6.084;2024-01-06T02:26:02;13.37;;;10.13;;
9188;SDS011;34313;50.780;6.084;2024-01-06T02:28:27;18.40;;;10.97;;
9188;SDS011;34313;50.780;6.084;2024-01-06T02:30:53;16.50;;;10.10;;
9188;SDS011;34313;50.780;6.084;2024-01-06T02:33:18;15.73;;;10.03;;
9188;SDS011;34313;50.780;6.084;2024-01-06T02:35:45;14.00;;;9.87;;
9188;SDS011;34313;50.780;6.084;2024-01-06T02:38:10;14.03;;;10.20;;
9188;SDS011;34313;50.780;6.084;2024-01-06T02:40:36;21.40;;;10.47;;
9188;SDS011;34313;50.780;6.084;2024-01-06T02:43:01;25.27;;;11.40;;
9188;SDS011;34313;50.780;6.084;2024-01-06T02:45:26;16.93;;;10.60;;
9188;SDS011;34313;50.780;6.084;2024-01-06T02:47:52;15.23;;;9.37;;
9188;SDS011;34313;50.780;6.084;2024-01-06T02:50:17;14.10;;;10.80;;
9188;SDS011;34313;50.780;6.084;2024-01-06T02:52:44;19.07;;;10.47;;
9188;SDS011;34313;50.780;6.084;2024-01-06T02:55:10;17.73;;;10.10;;
9188;SDS011;34313;50.780;6.084;2024-01-06T02:57:35;17.97;;;9.80;;
9188;SDS011;34313;50.780;6.084;2024-01-06T03:00:03;18.30;;;10.10;;
9188;SDS011;34313;50.780;6.084;2024-01-06T03:02:29;15.20;;;10.20;;
9188;SDS011;34313;50.780;6.084;2024-01-06T03:04:54;11.10;;;9.20;;
9188;SDS011;34313;50.780;6.084;2024-01-06T03:07:20;16.07;;;9.80;;
9188;SDS011;34313;50.780;6.084;2024-01-06T03:09:45;16.03;;;10.07;;
9188;SDS011;34313;50.780;6.084;2024-01-06T03:12:11;19.80;;;10.50;;
9188;SDS011;34313;50.780;6.084;2024-01-06T03:14:36;13.83;;;8.50;;
9188;SDS011;34313;50.780;6.084;2024-01-06T03:17:02;18.00;;;9.43;;
9188;SDS011;34313;50.780;6.084;2024-01-06T03:19:28;14.27;;;9.30;;
9188;SDS011;34313;50.780;6.084;2024-01-06T03:21:53;11.20;;;8.83;;
9188;SDS011;34313;50.780;6.084;2024-01-06T03:24:19;14.70;;;8.20;;
9188;SDS011;34313;50.780;6.084;2024-01-06T03:26:45;12.10;;;8.60;;
9188;SDS011;34313;50.780;6.084;2024-01-06T03:29:11;12.10;;;8.07;;
9188;SDS011;34313;50.780;6.084;2024-01-06T03:31:36;10.13;;;8.20;;
9188;SDS011;34313;50.780;6.084;2024-01-06T03:34:02;10.67;;;7.87;;
9188;SDS011;34313;50.780;6.084;2024-01-06T03:36:27;13.87;;;8.70;;
9188;SDS011;34313;50.780;6.084;2024-01-06T03:38:52;12.37;;;8.00;;
9188;SDS011;34313;50.780;6.084;2024-01-06T03:41:17;9.63;;;7.43;;
9188;SDS011;34313;50.780;6.084;2024-01-06T03:43:43;10.30;;;7.77;;
9188;SDS011;34313;50.780;6.084;2024-01-06T03:46:08;14.43;;;7.50;;
9188;SDS011;34313;50.780;6.084;2024-01-06T03:48:33;13.83;;;6.87;;
9188;SDS011;34313;50.780;6.084;2024-01-06T03:50:59;6.53;;;5.93;;
9188;SDS011;34313;50.780;6.084;2024-01-06T03:53:25;9.20;;;6.20;;
9188;SDS011;34313;50.780;6.084;2024-01-06T03:55:50;10.50;;;6.47;;
9188;SDS011;34313;50.780;6.084;2024-01-06T03:58:17;7.13;;;6.43;;
9188;SDS011;34313;50.780;6.084;2024-01-06T04:00:42;8.07;;;7.13;;
9188;SDS011;34313;50.780;6.084;2024-01-06T04:03:07;10.97;;;6.17;;
9188;SDS011;34313;50.780;6.084;2024-01-06T04:05:33;10.40;;;7.60;;
9188;SDS011;34313;50.780;6.084;2024-01-06T04:07:59;7.33;;;6.37;;
9188;SDS011;34313;50.780;6.084;2024-01-06T04:10:24;11.73;;;7.53;;
9188;SDS011;34313;50.780;6.084;2024-01-06T04:12:49;10.23;;;7.03;;
9188;SDS011;34313;50.780;6.084;2024-01-06T04:15:15;10.07;;;7.53;;
9188;SDS011;34313;50.780;6.084;2024-01-06T04:17:41;11.10;;;7.80;;
9188;SDS011;34313;50.780;6.084;2024-01-06T04:20:06;10.80;;;7.77;;
9188;SDS011;34313;50.780;6.084;2024-01-06T04:22:32;12.03;;;8.00;;
9188;SDS011;34313;50.780;6.084;2024-01-06T04:24:58;11.53;;;7.20;;
9188;SDS011;34313;50.780;6.084;2024-01-06T04:27:23;13.07;;;7.83;;
9188;SDS011;34313;50.780;6.084;2024-01-06T04:29:48;13.93;;;8.73;;
9188;SDS011;34313;50.780;6.084;2024-01-06T04:32:18;15.30;;;9.47;;
9188;SDS011;34313;50.780;6.084;2024-01-06T04:34:43;17.00;;;10.30;;
9188;SDS011;34313;50.780;6.084;2024-01-06T04:37:08;16.27;;;10.23;;
9188;SDS011;34313;50.780;6.084;2024-01-06T04:39:34;18.03;;;11.20;;
9188;SDS011;34313;50.780;6.084;2024-01-06T04:41:59;21.60;;;12.13;;
9188;SDS011;34313;50.780;6.084;2024-01-06T04:44:24;19.93;;;11.10;;
9188;SDS011;34313;50.780;6.084;2024-01-06T04:46:49;18.30;;;10.87;;
9188;SDS011;34313;50.780;6.084;2024-01-06T04:49:15;19.40;;;12.30;;
9188;SDS011;34313;50.780;6.084;2024-01-06T04:51:40;18.73;;;11.07;;
9188;SDS011;34313;50.780;6.084;2024-01-06T04:54:05;23.23;;;12.10;;
9188;SDS011;34313;50.780;6.084;2024-01-06T04:56:31;18.47;;;11.30;;
9188;SDS011;34313;50.780;6.084;2024-01-06T04:58:56;19.60;;;11.93;;
9188;SDS011;34313;50.780;6.084;2024-01-06T05:01:22;18.80;;;12.13;;
9188;SDS011;34313;50.780;6.084;2024-01-06T05:03:48;18.33;;;11.23;;
9188;SDS011;34313;50.780;6.084;2024-01-06T05:06:13;20.50;;;12.47;;
9188;SDS011;34313;50.780;6.084;2024-01-06T05:08:38;18.00;;;10.87;;
9188;SDS011;34313;50.780;6.084;2024-01-06T05:11:09;18.70;;;11.77;;
9188;SDS011;34313;50.780;6.084;2024-01-06T05:13:35;27.57;;;12.90;;
9188;SDS011;34313;50.780;6.084;2024-01-06T05:16:00;27.30;;;12.73;;
9188;SDS011;34313;50.780;6.084;2024-01-06T05:18:25;24.07;;;13.50;;
9188;SDS011;34313;50.780;6.084;2024-01-06T05:20:51;20.23;;;11.70;;
9188;SDS011;34313;50.780;6.084;2024-01-06T05:23:16;22.83;;;13.53;;
9188;SDS011;34313;50.780;6.084;2024-01-06T05:25:42;23.60;;;13.03;;
9188;SDS011;34313;50.780;6.084;2024-01-06T05:28:07;21.43;;;12.10;;
9188;SDS011;34313;50.780;6.084;2024-01-06T05:30:32;23.37;;;13.67;;
9188;SDS011;34313;50.780;6.084;2024-01-06T05:32:57;22.57;;;12.40;;
9188;SDS011;34313;50.780;6.084;2024-01-06T05:35:23;21.37;;;12.50;;
9188;SDS011;34313;50.780;6.084;2024-01-06T05:37:48;23.27;;;13.10;;
9188;SDS011;34313;50.780;6.084;2024-01-06T05:40:13;22.93;;;12.27;;
9188;SDS011;34313;50.780;6.084;2024-01-06T05:42:39;24.63;;;14.70;;
9188;SDS011;34313;50.780;6.084;2024-01-06T05:45:05;25.37;;;14.27;;
9188;SDS011;34313;50.780;6.084;2024-01-06T05:47:30;21.10;;;11.57;;
9188;SDS011;34313;50.780;6.084;2024-01-06T05:49:56;24.03;;;13.90;;
9188;SDS011;34313;50.780;6.084;2024-01-06T05:52:21;22.30;;;13.40;;
9188;SDS011;34313;50.780;6.084;2024-01-06T05:54:47;22.10;;;13.20;;
9188;SDS011;34313;50.780;6.084;2024-01-06T05:57:12;25.53;;;13.17;;
9188;SDS011;34313;50.780;6.084;2024-01-06T05:59:37;25.80;;;14.03;;
9188;SDS011;34313;50.780;6.084;2024-01-06T06:02:02;22.80;;;13.70;;
9188;SDS011;34313;50.780;6.084;2024-01-06T06:04:28;22.70;;;13.00;;
9188;SDS011;34313;50.780;6.084;2024-01-06T06:06:54;19.73;;;12.47;;
9188;SDS011;34313;50.780;6.084;2024-01-06T06:09:19;22.90;;;13.33;;
9188;SDS011;34313;50.780;6.084;2024-01-06T06:11:45;20.00;;;13.00;;
9188;SDS011;34313;50.780;6.084;2024-01-06T06:14:11;18.97;;;11.50;;
9188;SDS011;34313;50.780;6.084;2024-01-06T06:16:37;19.60;;;12.30;;
9188;SDS011;34313;50.780;6.084;2024-01-06T06:19:03;17.70;;;11.20;;
9188;SDS011;34313;50.780;6.084;2024-01-06T06:21:28;23.70;;;10.93;;
9188;SDS011;34313;50.780;6.084;2024-01-06T06:23:53;20.60;;;12.00;;
9188;SDS011;34313;50.780;6.084;2024-01-06T06:26:19;23.30;;;12.33;;
9188;SDS011;34313;50.780;6.084;2024-01-06T06:28:44;19.27;;;11.63;;
9188;SDS011;34313;50.780;6.084;2024-01-06T06:31:09;21.80;;;12.80;;
9188;SDS011;34313;50.780;6.084;2024-01-06T06:33:35;21.13;;;13.17;;
9188;SDS011;34313;50.780;6.084;2024-01-06T06:36:00;26.50;;;15.50;;
9188;SDS011;34313;50.780;6.084;2024-01-06T06:38:26;24.50;;;14.70;;
9188;SDS011;34313;50.780;6.084;2024-01-06T06:40:52;24.30;;;14.67;;
9188;SDS011;34313;50.780;6.084;2024-01-06T06:43:17;27.90;;;15.90;;
9188;SDS011;34313;50.780;6.084;2024-01-06T06:45:42;31.80;;;17.40;;
9188;SDS011;34313;50.780;6.084;2024-01-06T06:48:08;31.20;;;17.00;;
9188;SDS011;34313;50.780;6.084;2024-01-06T06:50:33;28.87;;;16.37;;
9188;SDS011;34313;50.780;6.084;2024-01-06T06:52:58;31.73;;;17.90;;
9188;SDS011;34313;50.780;6.084;2024-01-06T06:55:25;30.13;;;16.13;;
9188;SDS011;34313;50.780;6.084;2024-01-06T06:57:52;29.17;;;15.70;;
9188;SDS011;34313;50.780;6.084;2024-01-06T07:00:17;29.17;;;16.10;;
9188;SDS011;34313;50.780;6.084;2024-01-06T07:02:43;27.30;;;16.00;;
9188;SDS011;34313;50.780;6.084;2024-01-06T07:05:08;29.57;;;17.27;;
9188;SDS011;34313;50.780;6.084;2024-01-06T07:07:34;26.40;;;14.93;;
9188;SDS011;34313;50.780;6.084;2024-01-06T07:10:02;25.67;;;14.13;;
9188;SDS011;34313;50.780;6.084;2024-01-06T07:12:30;26.40;;;16.10;;
9188;SDS011;34313;50.780;6.084;2024-01-06T07:14:55;23.37;;;15.13;;
9188;SDS011;34313;50.780;6.084;2024-01-06T07:17:21;26.10;;;14.90;;
9188;SDS011;34313;50.780;6.084;2024-01-06T07:19:46;26.30;;;13.77;;
9188;SDS011;34313;50.780;6.084;2024-01-06T07:22:11;25.33;;;14.20;;
9188;SDS011;34313;50.780;6.084;2024-01-06T07:24:37;25.27;;;14.50;;
9188;SDS011;34313;50.780;6.084;2024-01-06T07:27:02;27.20;;;15.00;;
9188;SDS011;34313;50.780;6.084;2024-01-06T07:29:28;21.17;;;12.70;;
9188;SDS011;34313;50.780;6.084;2024-01-06T07:31:53;23.97;;;13.60;;
9188;SDS011;34313;50.780;6.084;2024-01-06T07:34:19;20.07;;;11.43;;
9188;SDS011;34313;50.780;6.084;2024-01-06T07:36:44;19.43;;;11.63;;
9188;SDS011;34313;50.780;6.084;2024-01-06T07:39:09;20.80;;;12.80;;
9188;SDS011;34313;50.780;6.084;2024-01-06T07:41:35;23.83;;;12.63;;
9188;SDS011;34313;50.780;6.084;2024-01-06T07:44:00;21.93;;;12.07;;
9188;SDS011;34313;50.780;6.084;2024-01-06T07:46:27;18.70;;;11.63;;
9188;SDS011;34313;50.780;6.084;2024-01-06T07:48:52;19.53;;;11.50;;
9188;SDS011;34313;50.780;6.084;2024-01-06T07:51:18;22.80;;;12.40;;
9188;SDS011;34313;50.780;6.084;2024-01-06T07:53:43;19.60;;;12.77;;
9188;SDS011;34313;50.780;6.084;2024-01-06T07:56:09;21.73;;;13.87;;
9188;SDS011;34313;50.780;6.084;2024-01-06T07:58:34;20.97;;;12.80;;
9188;SDS011;34313;50.780;6.084;2024-01-06T08:00:59;21.33;;;13.07;;
9188;SDS011;34313;50.780;6.084;2024-01-06T08:03:25;22.63;;;13.20;;
9188;SDS011;34313;50.780;6.084;2024-01-06T08:05:50;23.97;;;14.53;;
9188;SDS011;34313;50.780;6.084;2024-01-06T08:08:15;22.80;;;13.40;;
9188;SDS011;34313;50.780;6.084;2024-01-06T08:10:42;21.57;;;13.23;;
9188;SDS011;34313;50.780;6.084;2024-01-06T08:13:07;21.57;;;13.30;;
9188;SDS011;34313;50.780;6.084;2024-01-06T08:15:33;22.90;;;12.50;;
9188;SDS011;34313;50.780;6.084;2024-01-06T08:17:58;18.17;;;12.00;;
9188;SDS011;34313;50.780;6.084;2024-01-06T08:20:23;20.47;;;12.47;;
9188;SDS011;34313;50.780;6.084;2024-01-06T08:22:49;22.60;;;13.23;;
9188;SDS011;34313;50.780;6.084;2024-01-06T08:25:14;17.30;;;11.23;;
9188;SDS011;34313;50.780;6.084;2024-01-06T08:27:39;20.50;;;11.90;;
9188;SDS011;34313;50.780;6.084;2024-01-06T08:30:05;20.43;;;11.67;;
9188;SDS011;34313;50.780;6.084;2024-01-06T08:32:31;18.77;;;11.17;;
9188;SDS011;34313;50.780;6.084;2024-01-06T08:34:56;17.30;;;11.47;;
9188;SDS011;34313;50.780;6.084;2024-01-06T08:37:21;14.73;;;9.90;;
9188;SDS011;34313;50.780;6.084;2024-01-06T08:39:47;15.50;;;10.10;;
9188;SDS011;34313;50.780;6.084;2024-01-06T08:42:13;17.30;;;10.83;;
9188;SDS011;34313;50.780;6.084;2024-01-06T08:44:38;18.60;;;11.33;;
9188;SDS011;34313;50.780;6.084;2024-01-06T08:47:04;18.43;;;12.43;;
9188;SDS011;34313;50.780;6.084;2024-01-06T08:49:29;20.20;;;12.77;;
9188;SDS011;34313;50.780;6.084;2024-01-06T08:51:55;16.17;;;10.97;;
9188;SDS011;34313;50.780;6.084;2024-01-06T08:54:20;20.70;;;11.93;;
9188;SDS011;34313;50.780;6.084;2024-01-06T08:56:45;19.07;;;11.90;;
9188;SDS011;34313;50.780;6.084;2024-01-06T08:59:11;18.27;;;10.90;;
9188;SDS011;34313;50.780;6.084;2024-01-06T09:01:36;19.03;;;11.60;;
9188;SDS011;34313;50.780;6.084;2024-01-06T09:04:02;17.83;;;11.63;;
9188;SDS011;34313;50.780;6.084;2024-01-06T09:06:28;18.37;;;10.77;;
9188;SDS011;34313;50.780;6.084;2024-01-06T09:08:53;19.97;;;11.47;;
9188;SDS011;34313;50.780;6.084;2024-01-06T09:11:18;18.00;;;11.20;;
9188;SDS011;34313;50.780;6.084;2024-01-06T09:13:44;18.33;;;11.70;;
9188;SDS011;34313;50.780;6.084;2024-01-06T09:16:09;16.93;;;10.60;;
9188;SDS011;34313;50.780;6.084;2024-01-06T09:18:35;16.90;;;10.60;;
9188;SDS011;34313;50.780;6.084;2024-01-06T09:21:01;20.80;;;12.00;;
9188;SDS011;34313;50.780;6.084;2024-01-06T09:23:26;19.30;;;12.00;;
9188;SDS011;34313;50.780;6.084;2024-01-06T09:25:51;21.50;;;11.10;;
9188;SDS011;34313;50.780;6.084;2024-01-06T09:28:17;16.07;;;10.40;;
9188;SDS011;34313;50.780;6.084;2024-01-06T09:30:43;18.77;;;11.40;;
9188;SDS011;34313;50.780;6.084;2024-01-06T09:33:08;19.23;;;11.60;;
9188;SDS011;34313;50.780;6.084;2024-01-06T09:35:34;19.87;;;10.90;;
9188;SDS011;34313;50.780;6.084;2024-01-06T09:37:59;17.83;;;10.40;;
9188;SDS011;34313;50.780;6.084;2024-01-06T09:40:25;16.67;;;10.97;;
9188;SDS011;34313;50.780;6.084;2024-01-06T09:42:50;14.63;;;10.30;;
9188;SDS011;34313;50.780;6.084;2024-01-06T09:45:16;15.10;;;10.20;;
9188;SDS011;34313;50.780;6.084;2024-01-06T09:47:41;17.00;;;9.77;;
9188;SDS011;34313;50.780;6.084;2024-01-06T09:50:10;14.27;;;9.30;;
9188;SDS011;34313;50.780;6.084;2024-01-06T09:52:40;13.90;;;9.13;;
9188;SDS011;34313;50.780;6.084;2024-01-06T09:55:12;16.07;;;9.70;;
9188;SDS011;34313;50.780;6.084;2024-01-06T09:57:37;12.70;;;8.40;;
9188;SDS011;34313;50.780;6.084;2024-01-06T10:00:03;12.83;;;8.63;;
9188;SDS011;34313;50.780;6.084;2024-01-06T10:02:30;15.50;;;8.73;;
9188;SDS011;34313;50.780;6.084;2024-01-06T10:04:57;15.00;;;8.63;;
9188;SDS011;34313;50.780;6.084;2024-01-06T10:07:23;14.37;;;8.57;;
9188;SDS011;34313;50.780;6.084;2024-01-06T10:09:48;12.13;;;8.70;;
9188;SDS011;34313;50.780;6.084;2024-01-06T10:12:14;11.67;;;8.77;;
9188;SDS011;34313;50.780;6.084;2024-01-06T10:14:39;11.77;;;8.40;;
9188;SDS011;34313;50.780;6.084;2024-01-06T10:17:07;15.20;;;9.80;;
9188;SDS011;34313;50.780;6.084;2024-01-06T10:19:34;12.83;;;8.53;;
9188;SDS011;34313;50.780;6.084;2024-01-06T10:22:00;10.77;;;8.03;;
9188;SDS011;34313;50.780;6.084;2024-01-06T10:24:27;13.60;;;8.80;;
9188;SDS011;34313;50.780;6.084;2024-01-06T10:26:53;12.30;;;8.97;;
9188;SDS011;34313;50.780;6.084;2024-01-06T10:29:18;13.30;;;8.97;;
9188;SDS011;34313;50.780;6.084;2024-01-06T10:31:43;16.37;;;9.50;;
9188;SDS011;34313;50.780;6.084;2024-01-06T10:34:09;11.37;;;7.80;;
9188;SDS011;34313;50.780;6.084;2024-01-06T10:36:34;11.53;;;8.23;;
9188;SDS011;34313;50.780;6.084;2024-01-06T10:39:00;13.00;;;8.43;;
9188;SDS011;34313;50.780;6.084;2024-01-06T10:41:27;15.07;;;9.20;;
9188;SDS011;34313;50.780;6.084;2024-01-06T10:43:55;14.80;;;9.70;;
9188;SDS011;34313;50.780;6.084;2024-01-06T10:46:26;10.37;;;8.07;;
9188;SDS011;34313;50.780;6.084;2024-01-06T10:48:53;13.30;;;8.57;;
9188;SDS011;34313;50.780;6.084;2024-01-06T10:51:22;14.40;;;7.50;;
9188;SDS011;34313;50.780;6.084;2024-01-06T10:53:48;14.67;;;8.90;;
9188;SDS011;34313;50.780;6.084;2024-01-06T10:56:15;16.17;;;8.97;;
9188;SDS011;34313;50.780;6.084;2024-01-06T10:58:45;14.03;;;9.20;;
9188;SDS011;34313;50.780;6.084;2024-01-06T11:01:12;15.30;;;10.27;;
9188;SDS011;34313;50.780;6.084;2024-01-06T11:03:38;14.30;;;9.50;;
9188;SDS011;34313;50.780;6.084;2024-01-06T11:06:04;14.20;;;9.47;;
9188;SDS011;34313;50.780;6.084;2024-01-06T11:08:31;13.37;;;8.93;;
9188;SDS011;34313;50.780;6.084;2024-01-06T11:11:01;10.30;;;7.60;;
9188;SDS011;34313;50.780;6.084;2024-01-06T11:13:28;13.23;;;8.43;;
9188;SDS011;34313;50.780;6.084;2024-01-06T11:15:53;13.07;;;8.57;;
9188;SDS011;34313;50.780;6.084;2024-01-06T11:18:34;15.57;;;9.43;;
9188;SDS011;34313;50.780;6.084;2024-01-06T11:26:31;11.67;;;7.77;;
9188;SDS011;34313;50.780;6.084;2024-01-06T11:28:57;13.40;;;8.13;;
9188;SDS011;34313;50.780;6.084;2024-01-06T11:31:23;10.57;;;7.00;;
9188;SDS011;34313;50.780;6.084;2024-01-06T11:33:53;12.20;;;8.10;;
9188;SDS011;34313;50.780;6.084;2024-01-06T11:36:19;14.47;;;8.20;;
9188;SDS011;34313;50.780;6.084;2024-01-06T11:38:45;11.30;;;7.80;;
9188;SDS011;34313;50.780;6.084;2024-01-06T11:42:00;10.50;;;6.60;;
9188;SDS011;34313;50.780;6.084;2024-01-06T11:44:14;11.10;;;7.47;;
9188;SDS011;34313;50.780;6.084;2024-01-06T11:46:43;10.10;;;6.57;;
9188;SDS011;34313;50.780;6.084;2024-01-06T11:49:10;9.70;;;6.90;;
9188;SDS011;34313;50.780;6.084;2024-01-06T11:51:36;9.67;;;6.70;;
9188;SDS011;34313;50.780;6.084;2024-01-06T11:54:02;10.53;;;6.33;;
9188;SDS011;34313;50.780;6.084;2024-01-06T11:56:27;8.83;;;6.00;;
9188;SDS011;34313;50.780;6.084;2024-01-06T11:58:52;8.37;;;6.20;;
9188;SDS011;34313;50.780;6.084;2024-01-06T12:01:18;10.50;;;6.83;;
9188;SDS011;34313;50.780;6.084;2024-01-06T12:03:43;7.83;;;5.40;;
9188;SDS011;34313;50.780;6.084;2024-01-06T12:06:09;10.23;;;7.40;;
9188;SDS011;34313;50.780;6.084;2024-01-06T12:08:34;11.90;;;6.83;;
9188;SDS011;34313;50.780;6.084;2024-01-06T12:11:03;11.83;;;7.50;;
9188;SDS011;34313;50.780;6.084;2024-01-06T12:13:28;11.97;;;7.60;;
9188;SDS011;34313;50.780;6.084;2024-01-06T12:15:54;11.83;;;7.80;;
9188;SDS011;34313;50.780;6.084;2024-01-06T12:18:19;11.30;;;7.30;;
9188;SDS011;34313;50.780;6.084;2024-01-06T12:20:45;11.13;;;7.40;;
9188;SDS011;34313;50.780;6.084;2024-01-06T12:23:11;11.37;;;7.30;;
9188;SDS011;34313;50.780;6.084;2024-01-06T12:25:36;9.70;;;6.93;;
9188;SDS011;34313;50.780;6.084;2024-01-06T12:28:03;9.40;;;7.33;;
9188;SDS011;34313;50.780;6.084;2024-01-06T12:30:30;8.37;;;6.27;;
9188;SDS011;34313;50.780;6.084;2024-01-06T12:32:56;12.53;;;6.83;;
9188;SDS011;34313;50.780;6.084;2024-01-06T12:35:21;10.60;;;7.10;;
9188;SDS011;34313;50.780;6.084;2024-01-06T12:37:47;9.60;;;6.80;;
9188;SDS011;34313;50.780;6.084;2024-01-06T12:40:13;8.70;;;6.80;;
9188;SDS011;34313;50.780;6.084;2024-01-06T12:42:41;9.87;;;6.57;;
9188;SDS011;34313;50.780;6.084;2024-01-06T12:45:07;8.77;;;6.23;;
9188;SDS011;34313;50.780;6.084;2024-01-06T12:47:33;9.60;;;7.07;;
9188;SDS011;34313;50.780;6.084;2024-01-06T12:49:59;10.07;;;7.17;;
9188;SDS011;34313;50.780;6.084;2024-01-06T12:52:24;11.60;;;8.13;;
9188;SDS011;34313;50.780;6.084;2024-01-06T12:54:49;13.50;;;7.83;;
9188;SDS011;34313;50.780;6.084;2024-01-06T12:57:15;12.90;;;8.00;;
9188;SDS011;34313;50.780;6.084;2024-01-06T12:59:41;11.80;;;8.10;;
9188;SDS011;34313;50.780;6.084;2024-01-06T13:02:06;13.80;;;7.90;;
9188;SDS011;34313;50.780;6.084;2024-01-06T13:04:31;15.97;;;9.30;;
9188;SDS011;34313;50.780;6.084;2024-01-06T13:06:56;13.00;;;8.97;;
9188;SDS011;34313;50.780;6.084;2024-01-06T13:09:22;13.40;;;8.73;;
9188;SDS011;34313;50.780;6.084;2024-01-06T13:11:48;15.07;;;8.27;;
9188;SDS011;34313;50.780;6.084;2024-01-06T13:14:15;12.57;;;8.33;;
9188;SDS011;34313;50.780;6.084;2024-01-06T13:16:40;14.47;;;8.73;;
9188;SDS011;34313;50.780;6.084;2024-01-06T13:19:05;13.10;;;8.53;;
9188;SDS011;34313;50.780;6.084;2024-01-06T13:21:31;14.40;;;8.83;;
9188;SDS011;34313;50.780;6.084;2024-01-06T13:23:56;15.17;;;8.93;;
9188;SDS011;34313;50.780;6.084;2024-01-06T13:26:27;15.17;;;10.40;;
9188;SDS011;34313;50.780;6.084;2024-01-06T13:28:56;13.90;;;8.37;;
9188;SDS011;34313;50.780;6.084;2024-01-06T13:31:21;15.67;;;9.23;;
9188;SDS011;34313;50.780;6.084;2024-01-06T13:33:47;19.20;;;11.20;;
9188;SDS011;34313;50.780;6.084;2024-01-06T13:36:12;13.93;;;9.57;;
9188;SDS011;34313;50.780;6.084;2024-01-06T13:38:38;15.60;;;9.47;;
9188;SDS011;34313;50.780;6.084;2024-01-06T13:41:03;17.10;;;10.80;;
9188;SDS011;34313;50.780;6.084;2024-01-06T13:43:29;19.10;;;10.97;;
9188;SDS011;34313;50.780;6.084;2024-01-06T13:45:54;17.80;;;10.80;;
9188;SDS011;34313;50.780;6.084;2024-01-06T13:48:20;18.73;;;10.50;;
9188;SDS011;34313;50.780;6.084;2024-01-06T13:50:46;17.13;;;10.40;;
9188;SDS011;34313;50.780;6.084;2024-01-06T13:53:12;16.27;;;9.33;;
9188;SDS011;34313;50.780;6.084;2024-01-06T13:55:38;15.63;;;9.13;;
9188;SDS011;34313;50.780;6.084;2024-01-06T13:58:03;15.43;;;9.70;;
9188;SDS011;34313;50.780;6.084;2024-01-06T14:00:29;17.93;;;9.37;;
9188;SDS011;34313;50.780;6.084;2024-01-06T14:02:54;12.87;;;8.53;;
9188;SDS011;34313;50.780;6.084;2024-01-06T14:05:21;13.53;;;7.23;;
9188;SDS011;34313;50.780;6.084;2024-01-06T14:07:46;11.60;;;7.70;;
9188;SDS011;34313;50.780;6.084;2024-01-06T14:10:14;13.57;;;8.57;;
9188;SDS011;34313;50.780;6.084;2024-01-06T14:12:40;12.20;;;8.07;;
9188;SDS011;34313;50.780;6.084;2024-01-06T14:15:06;14.93;;;8.07;;
9188;SDS011;34313;50.780;6.084;2024-01-06T14:17:32;18.27;;;9.83;;
9188;SDS011;34313;50.780;6.084;2024-01-06T14:19:57;16.63;;;10.33;;
9188;SDS011;34313;50.780;6.084;2024-01-06T14:22:23;17.67;;;11.50;;
9188;SDS011;34313;50.780;6.084;2024-01-06T14:24:48;15.13;;;10.57;;
9188;SDS011;34313;50.780;6.084;2024-01-06T14:27:16;17.70;;;11.60;;
9188;SDS011;34313;50.780;6.084;2024-01-06T14:29:41;16.97;;;10.80;;
9188;SDS011;34313;50.780;6.084;2024-01-06T14:32:07;21.70;;;12.07;;
9188;SDS011;34313;50.780;6.084;2024-01-06T14:34:32;18.87;;;12.50;;
9188;SDS011;34313;50.780;6.084;2024-01-06T14:36:57;20.27;;;11.50;;